sensor_id;sensor_type;location;lat;lon;timestamp;temperature;humidity
70068;DHT22;57425;51.616;6.680;2022-12-16T00:01:03;-2.70;67.70
70068;DHT22;57425;51.616;6.680;2022-12-16T00:03:29;-2.70;67.70
70068;DHT22;57425;51.616;6.680;2022-12-16T00:05:55;-2.70;67.70
70068;DHT22;57425;51.616;6.680;2022-12-16T00:08:20;-2.70;67.70
70068;DHT22;57425;51.616;6.680;2022-12-16T00:10:46;-2.70;67.80
70068;DHT22;57425;51.616;6.680;2022-12-16T00:13:17;-2.70;67.80
70068;DHT22;57425;51.616;6.680;2022-12-16T00:15:43;-2.80;67.80
70068;DHT22;57425;51.616;6.680;2022-12-16T00:18:11;-2.80;67.80
70068;DHT22;57425;51.616;6.680;2022-12-16T00:20:37;-2.70;68.00
70068;DHT22;57425;51.616;6.680;2022-12-16T00:23:07;-2.80;68.00
70068;DHT22;57425;51.616;6.680;2022-12-16T00:25:33;-2.80;68.10
70068;DHT22;57425;51.616;6.680;2022-12-16T00:27:58;-2.80;68.10
70068;DHT22;57425;51.616;6.680;2022-12-16T00:30:24;-2.80;68.20
70068;DHT22;57425;51.616;6.680;2022-12-16T00:32:49;-2.80;68.20
70068;DHT22;57425;51.616;6.680;2022-12-16T00:35:15;-2.80;68.30
70068;DHT22;57425;51.616;6.680;2022-12-16T00:37:40;-2.80;68.40
70068;DHT22;57425;51.616;6.680;2022-12-16T00:40:06;-2.80;68.40
70068;DHT22;57425;51.616;6.680;2022-12-16T00:42:32;-2.80;68.40
70068;DHT22;57425;51.616;6.680;2022-12-16T00:44:58;-2.80;68.50
70068;DHT22;57425;51.616;6.680;2022-12-16T00:47:23;-2.80;68.50
70068;DHT22;57425;51.616;6.680;2022-12-16T00:49:49;-2.80;68.60
70068;DHT22;57425;51.616;6.680;2022-12-16T00:52:14;-2.80;68.60
70068;DHT22;57425;51.616;6.680;2022-12-16T00:54:41;-2.80;69.20
70068;DHT22;57425;51.616;6.680;2022-12-16T00:57:07;-2.90;68.60
70068;DHT22;57425;51.616;6.680;2022-12-16T00:59:32;-2.80;68.70
70068;DHT22;57425;51.616;6.680;2022-12-16T01:01:58;-2.90;68.70
70068;DHT22;57425;51.616;6.680;2022-12-16T01:04:23;-2.90;68.80
70068;DHT22;57425;51.616;6.680;2022-12-16T01:06:51;-2.90;68.80
70068;DHT22;57425;51.616;6.680;2022-12-16T01:09:16;-2.90;68.80
70068;DHT22;57425;51.616;6.680;2022-12-16T01:11:42;-2.90;68.80
70068;DHT22;57425;51.616;6.680;2022-12-16T01:14:07;-2.90;68.80
70068;DHT22;57425;51.616;6.680;2022-12-16T01:16:33;-2.90;68.80
70068;DHT22;57425;51.616;6.680;2022-12-16T01:18:59;-2.90;68.90
70068;DHT22;57425;51.616;6.680;2022-12-16T01:21:25;-2.90;68.90
70068;DHT22;57425;51.616;6.680;2022-12-16T01:23:50;-2.90;69.40
70068;DHT22;57425;51.616;6.680;2022-12-16T01:26:17;-2.90;68.90
70068;DHT22;57425;51.616;6.680;2022-12-16T01:28:43;-2.90;68.90
70068;DHT22;57425;51.616;6.680;2022-12-16T01:31:09;-2.90;69.00
70068;DHT22;57425;51.616;6.680;2022-12-16T01:33:35;-2.90;69.00
70068;DHT22;57425;51.616;6.680;2022-12-16T01:36:06;-2.90;69.00
70068;DHT22;57425;51.616;6.680;2022-12-16T01:38:32;-2.90;69.00
70068;DHT22;57425;51.616;6.680;2022-12-16T01:40:58;-2.90;69.00
70068;DHT22;57425;51.616;6.680;2022-12-16T01:43:29;-2.90;69.00
70068;DHT22;57425;51.616;6.680;2022-12-16T01:46:22;-2.90;69.00
70068;DHT22;57425;51.616;6.680;2022-12-16T01:49:03;-2.90;69.10
70068;DHT22;57425;51.616;6.680;2022-12-16T01:51:36;-2.90;69.00
70068;DHT22;57425;51.616;6.680;2022-12-16T01:54:17;-2.90;69.00
70068;DHT22;57425;51.616;6.680;2022-12-16T01:57:08;-2.90;69.00
70068;DHT22;57425;51.616;6.680;2022-12-16T01:59:35;-2.90;69.00
70068;DHT22;57425;51.616;6.680;2022-12-16T02:02:02;-2.90;69.00
70068;DHT22;57425;51.616;6.680;2022-12-16T02:04:28;-2.90;69.00
70068;DHT22;57425;51.616;6.680;2022-12-16T02:06:54;-2.90;69.10
70068;DHT22;57425;51.616;6.680;2022-12-16T02:09:20;-2.90;69.10
70068;DHT22;57425;51.616;6.680;2022-12-16T02:17:22;-2.90;69.10
70068;DHT22;57425;51.616;6.680;2022-12-16T02:39:27;-3.00;69.30
70068;DHT22;57425;51.616;6.680;2022-12-16T02:42:04;-3.00;69.30
70068;DHT22;57425;51.616;6.680;2022-12-16T02:44:47;-2.90;69.40
70068;DHT22;57425;51.616;6.680;2022-12-16T02:47:17;-2.90;69.50
70068;DHT22;57425;51.616;6.680;2022-12-16T02:49:46;-3.00;69.30
70068;DHT22;57425;51.616;6.680;2022-12-16T02:52:13;-3.00;69.40
70068;DHT22;57425;51.616;6.680;2022-12-16T02:54:39;-3.00;69.50
70068;DHT22;57425;51.616;6.680;2022-12-16T02:57:40;-3.00;69.50
70068;DHT22;57425;51.616;6.680;2022-12-16T03:00:14;-2.90;69.60
70068;DHT22;57425;51.616;6.680;2022-12-16T03:07:50;-2.90;69.60
70068;DHT22;57425;51.616;6.680;2022-12-16T03:10:19;-3.00;69.50
70068;DHT22;57425;51.616;6.680;2022-12-16T03:12:46;-3.00;69.60
70068;DHT22;57425;51.616;6.680;2022-12-16T03:15:18;-3.00;69.60
70068;DHT22;57425;51.616;6.680;2022-12-16T03:17:45;-2.90;69.70
70068;DHT22;57425;51.616;6.680;2022-12-16T03:20:24;-3.00;69.60
70068;DHT22;57425;51.616;6.680;2022-12-16T03:22:51;-3.00;69.70
70068;DHT22;57425;51.616;6.680;2022-12-16T03:25:19;-3.00;69.70
70068;DHT22;57425;51.616;6.680;2022-12-16T03:27:57;-3.00;69.70
70068;DHT22;57425;51.616;6.680;2022-12-16T03:30:33;-3.00;69.80
70068;DHT22;57425;51.616;6.680;2022-12-16T03:33:04;-3.00;69.70
70068;DHT22;57425;51.616;6.680;2022-12-16T03:35:58;-3.00;69.80
70068;DHT22;57425;51.616;6.680;2022-12-16T03:38:26;-3.00;69.90
70068;DHT22;57425;51.616;6.680;2022-12-16T03:40:53;-3.00;69.90
70068;DHT22;57425;51.616;6.680;2022-12-16T03:43:20;-3.00;69.90
70068;DHT22;57425;51.616;6.680;2022-12-16T03:45:50;-3.00;69.80
70068;DHT22;57425;51.616;6.680;2022-12-16T03:48:22;-3.00;69.90
70068;DHT22;57425;51.616;6.680;2022-12-16T03:50:48;-2.90;70.00
70068;DHT22;57425;51.616;6.680;2022-12-16T03:53:13;-3.00;69.80
70068;DHT22;57425;51.616;6.680;2022-12-16T03:55:39;-2.90;69.90
70068;DHT22;57425;51.616;6.680;2022-12-16T03:58:05;-2.90;69.90
70068;DHT22;57425;51.616;6.680;2022-12-16T04:00:31;-3.00;69.80
70068;DHT22;57425;51.616;6.680;2022-12-16T04:02:57;-2.90;69.80
70068;DHT22;57425;51.616;6.680;2022-12-16T04:05:22;-2.90;69.80
70068;DHT22;57425;51.616;6.680;2022-12-16T04:07:48;-2.90;69.80
70068;DHT22;57425;51.616;6.680;2022-12-16T04:10:14;-2.90;69.80
70068;DHT22;57425;51.616;6.680;2022-12-16T04:12:40;-2.90;69.80
70068;DHT22;57425;51.616;6.680;2022-12-16T04:15:24;-3.00;69.80
70068;DHT22;57425;51.616;6.680;2022-12-16T04:18:16;-3.00;69.70
70068;DHT22;57425;51.616;6.680;2022-12-16T04:21:02;-2.90;69.80
70068;DHT22;57425;51.616;6.680;2022-12-16T04:23:53;-3.00;69.70
70068;DHT22;57425;51.616;6.680;2022-12-16T04:26:38;-2.90;69.70
70068;DHT22;57425;51.616;6.680;2022-12-16T04:29:23;-3.00;69.60
70068;DHT22;57425;51.616;6.680;2022-12-16T04:31:49;-3.00;69.60
70068;DHT22;57425;51.616;6.680;2022-12-16T04:34:16;-2.90;69.60
70068;DHT22;57425;51.616;6.680;2022-12-16T04:36:53;-3.00;69.50
70068;DHT22;57425;51.616;6.680;2022-12-16T04:39:37;-2.90;69.50
70068;DHT22;57425;51.616;6.680;2022-12-16T04:42:21;-3.00;69.40
70068;DHT22;57425;51.616;6.680;2022-12-16T04:45:06;-3.00;69.40
70068;DHT22;57425;51.616;6.680;2022-12-16T04:47:52;-3.00;69.40
70068;DHT22;57425;51.616;6.680;2022-12-16T04:50:38;-3.00;69.30
70068;DHT22;57425;51.616;6.680;2022-12-16T04:53:25;-3.00;69.30
70068;DHT22;57425;51.616;6.680;2022-12-16T04:56:10;-3.00;69.30
70068;DHT22;57425;51.616;6.680;2022-12-16T04:58:54;-3.00;69.20
70068;DHT22;57425;51.616;6.680;2022-12-16T05:01:38;-3.00;69.20
70068;DHT22;57425;51.616;6.680;2022-12-16T05:04:22;-3.00;69.20
70068;DHT22;57425;51.616;6.680;2022-12-16T05:07:06;-3.00;69.10
70068;DHT22;57425;51.616;6.680;2022-12-16T05:09:51;-3.00;69.10
70068;DHT22;57425;51.616;6.680;2022-12-16T05:12:35;-3.00;69.00
70068;DHT22;57425;51.616;6.680;2022-12-16T05:15:19;-3.10;68.90
70068;DHT22;57425;51.616;6.680;2022-12-16T05:18:07;-3.10;68.90
70068;DHT22;57425;51.616;6.680;2022-12-16T05:20:51;-3.10;69.00
70068;DHT22;57425;51.616;6.680;2022-12-16T05:23:35;-3.10;68.90
70068;DHT22;57425;51.616;6.680;2022-12-16T05:26:19;-3.10;68.90
70068;DHT22;57425;51.616;6.680;2022-12-16T05:29:03;-3.10;69.00
70068;DHT22;57425;51.616;6.680;2022-12-16T05:31:47;-3.20;68.80
70068;DHT22;57425;51.616;6.680;2022-12-16T05:34:32;-3.20;68.90
70068;DHT22;57425;51.616;6.680;2022-12-16T05:37:16;-3.20;68.90
70068;DHT22;57425;51.616;6.680;2022-12-16T05:40:00;-3.20;69.00
70068;DHT22;57425;51.616;6.680;2022-12-16T05:42:46;-3.20;69.00
70068;DHT22;57425;51.616;6.680;2022-12-16T05:45:31;-3.10;69.10
70068;DHT22;57425;51.616;6.680;2022-12-16T05:48:15;-3.20;69.10
70068;DHT22;57425;51.616;6.680;2022-12-16T05:50:59;-3.20;69.10
70068;DHT22;57425;51.616;6.680;2022-12-16T05:53:43;-3.10;69.20
70068;DHT22;57425;51.616;6.680;2022-12-16T05:56:27;-3.20;69.20
70068;DHT22;57425;51.616;6.680;2022-12-16T05:59:11;-3.20;69.20
70068;DHT22;57425;51.616;6.680;2022-12-16T06:01:55;-3.20;69.20
70068;DHT22;57425;51.616;6.680;2022-12-16T06:04:40;-3.20;69.20
70068;DHT22;57425;51.616;6.680;2022-12-16T06:07:23;-3.20;69.30
70068;DHT22;57425;51.616;6.680;2022-12-16T06:10:08;-3.30;69.30
70068;DHT22;57425;51.616;6.680;2022-12-16T06:12:52;-3.20;69.30
70068;DHT22;57425;51.616;6.680;2022-12-16T06:15:36;-3.20;69.40
70068;DHT22;57425;51.616;6.680;2022-12-16T06:18:20;-3.20;69.50
70068;DHT22;57425;51.616;6.680;2022-12-16T06:21:04;-3.20;69.50
70068;DHT22;57425;51.616;6.680;2022-12-16T06:23:49;-3.20;69.60
70068;DHT22;57425;51.616;6.680;2022-12-16T06:26:33;-3.20;69.60
70068;DHT22;57425;51.616;6.680;2022-12-16T06:29:17;-3.20;69.70
70068;DHT22;57425;51.616;6.680;2022-12-16T06:32:01;-3.20;69.70
70068;DHT22;57425;51.616;6.680;2022-12-16T06:34:45;-3.20;69.70
70068;DHT22;57425;51.616;6.680;2022-12-16T06:37:29;-3.20;69.80
70068;DHT22;57425;51.616;6.680;2022-12-16T06:40:13;-3.20;69.90
70068;DHT22;57425;51.616;6.680;2022-12-16T06:42:57;-3.30;70.00
70068;DHT22;57425;51.616;6.680;2022-12-16T06:45:41;-3.30;69.90
70068;DHT22;57425;51.616;6.680;2022-12-16T06:48:25;-3.30;69.90
70068;DHT22;57425;51.616;6.680;2022-12-16T06:51:09;-3.30;69.90
70068;DHT22;57425;51.616;6.680;2022-12-16T06:53:54;-3.30;69.90
70068;DHT22;57425;51.616;6.680;2022-12-16T06:56:38;-3.30;70.00
70068;DHT22;57425;51.616;6.680;2022-12-16T06:59:22;-3.30;70.00
70068;DHT22;57425;51.616;6.680;2022-12-16T07:02:11;-3.30;70.00
70068;DHT22;57425;51.616;6.680;2022-12-16T07:04:55;-3.30;70.10
70068;DHT22;57425;51.616;6.680;2022-12-16T07:07:46;-3.20;70.20
70068;DHT22;57425;51.616;6.680;2022-12-16T07:10:30;-3.20;70.30
70068;DHT22;57425;51.616;6.680;2022-12-16T07:13:15;-3.20;70.30
70068;DHT22;57425;51.616;6.680;2022-12-16T07:15:59;-3.30;70.30
70068;DHT22;57425;51.616;6.680;2022-12-16T07:18:44;-3.20;70.30
70068;DHT22;57425;51.616;6.680;2022-12-16T07:21:28;-3.20;70.40
70068;DHT22;57425;51.616;6.680;2022-12-16T07:24:13;-3.20;70.40
70068;DHT22;57425;51.616;6.680;2022-12-16T07:26:57;-3.20;70.40
70068;DHT22;57425;51.616;6.680;2022-12-16T07:29:41;-3.20;70.40
70068;DHT22;57425;51.616;6.680;2022-12-16T07:32:25;-3.20;70.40
70068;DHT22;57425;51.616;6.680;2022-12-16T07:35:09;-3.20;70.40
70068;DHT22;57425;51.616;6.680;2022-12-16T07:37:53;-3.20;70.40
70068;DHT22;57425;51.616;6.680;2022-12-16T07:40:38;-3.30;70.40
70068;DHT22;57425;51.616;6.680;2022-12-16T07:43:22;-3.20;70.60
70068;DHT22;57425;51.616;6.680;2022-12-16T07:46:06;-3.20;70.50
70068;DHT22;57425;51.616;6.680;2022-12-16T07:48:50;-3.20;70.60
70068;DHT22;57425;51.616;6.680;2022-12-16T07:51:34;-3.20;70.60
70068;DHT22;57425;51.616;6.680;2022-12-16T07:54:18;-3.20;70.60
70068;DHT22;57425;51.616;6.680;2022-12-16T07:57:02;-3.10;70.70
70068;DHT22;57425;51.616;6.680;2022-12-16T07:59:47;-3.10;70.70
70068;DHT22;57425;51.616;6.680;2022-12-16T08:02:31;-3.10;70.80
70068;DHT22;57425;51.616;6.680;2022-12-16T08:05:16;-3.10;70.80
70068;DHT22;57425;51.616;6.680;2022-12-16T08:08:00;-3.10;70.80
70068;DHT22;57425;51.616;6.680;2022-12-16T08:10:44;-3.10;70.90
70068;DHT22;57425;51.616;6.680;2022-12-16T08:13:28;-3.10;70.90
70068;DHT22;57425;51.616;6.680;2022-12-16T08:16:12;-3.10;70.90
70068;DHT22;57425;51.616;6.680;2022-12-16T08:18:56;-3.10;70.90
70068;DHT22;57425;51.616;6.680;2022-12-16T08:21:40;-3.10;70.90
70068;DHT22;57425;51.616;6.680;2022-12-16T08:24:24;-3.00;71.00
70068;DHT22;57425;51.616;6.680;2022-12-16T08:27:08;-3.00;71.10
70068;DHT22;57425;51.616;6.680;2022-12-16T08:29:53;-3.00;71.20
70068;DHT22;57425;51.616;6.680;2022-12-16T08:32:37;-3.00;71.10
70068;DHT22;57425;51.616;6.680;2022-12-16T08:35:21;-3.00;71.10
70068;DHT22;57425;51.616;6.680;2022-12-16T08:38:05;-3.00;71.10
70068;DHT22;57425;51.616;6.680;2022-12-16T08:40:49;-3.00;71.10
70068;DHT22;57425;51.616;6.680;2022-12-16T08:43:34;-3.00;71.10
70068;DHT22;57425;51.616;6.680;2022-12-16T08:46:19;-3.00;71.20
70068;DHT22;57425;51.616;6.680;2022-12-16T08:49:04;-3.00;71.20
70068;DHT22;57425;51.616;6.680;2022-12-16T08:51:48;-3.00;71.30
70068;DHT22;57425;51.616;6.680;2022-12-16T08:54:33;-3.00;71.40
70068;DHT22;57425;51.616;6.680;2022-12-16T08:57:17;-3.00;71.90
70068;DHT22;57425;51.616;6.680;2022-12-16T09:00:01;-2.90;71.50
70068;DHT22;57425;51.616;6.680;2022-12-16T09:02:45;-2.90;71.50
70068;DHT22;57425;51.616;6.680;2022-12-16T09:05:29;-3.00;71.40
70068;DHT22;57425;51.616;6.680;2022-12-16T09:08:13;-2.90;71.60
70068;DHT22;57425;51.616;6.680;2022-12-16T09:11:01;-2.90;71.60
70068;DHT22;57425;51.616;6.680;2022-12-16T09:13:45;-2.90;71.70
70068;DHT22;57425;51.616;6.680;2022-12-16T09:16:29;-2.90;71.70
70068;DHT22;57425;51.616;6.680;2022-12-16T09:19:13;-2.90;71.70
70068;DHT22;57425;51.616;6.680;2022-12-16T09:21:57;-2.80;71.80
70068;DHT22;57425;51.616;6.680;2022-12-16T09:24:42;-2.90;71.80
70068;DHT22;57425;51.616;6.680;2022-12-16T09:27:26;-2.90;71.80
70068;DHT22;57425;51.616;6.680;2022-12-16T09:30:10;-2.90;71.90
70068;DHT22;57425;51.616;6.680;2022-12-16T09:32:54;-2.80;72.00
70068;DHT22;57425;51.616;6.680;2022-12-16T09:35:38;-2.80;72.00
70068;DHT22;57425;51.616;6.680;2022-12-16T09:38:22;-2.80;72.10
70068;DHT22;57425;51.616;6.680;2022-12-16T09:44:41;-2.80;72.10
70068;DHT22;57425;51.616;6.680;2022-12-16T09:47:51;-2.80;72.10
70068;DHT22;57425;51.616;6.680;2022-12-16T09:50:52;-2.70;72.10
70068;DHT22;57425;51.616;6.680;2022-12-16T09:53:37;-2.80;72.10
70068;DHT22;57425;51.616;6.680;2022-12-16T09:56:31;-2.70;72.10
70068;DHT22;57425;51.616;6.680;2022-12-16T09:59:27;-2.70;72.10
70068;DHT22;57425;51.616;6.680;2022-12-16T10:02:14;-2.70;72.20
70068;DHT22;57425;51.616;6.680;2022-12-16T10:05:00;-2.70;72.30
70068;DHT22;57425;51.616;6.680;2022-12-16T10:08:02;-2.70;72.30
70068;DHT22;57425;51.616;6.680;2022-12-16T10:10:50;-2.70;72.40
70068;DHT22;57425;51.616;6.680;2022-12-16T10:13:47;-2.70;72.40
70068;DHT22;57425;51.616;6.680;2022-12-16T10:25:34;-2.60;72.60
70068;DHT22;57425;51.616;6.680;2022-12-16T10:31:25;-2.50;72.70
70068;DHT22;57425;51.616;6.680;2022-12-16T10:34:18;-2.60;72.60
70068;DHT22;57425;51.616;6.680;2022-12-16T10:37:03;-2.50;72.60
70068;DHT22;57425;51.616;6.680;2022-12-16T10:39:56;-2.50;72.70
70068;DHT22;57425;51.616;6.680;2022-12-16T10:42:55;-2.50;72.80
70068;DHT22;57425;51.616;6.680;2022-12-16T10:45:49;-2.50;72.80
70068;DHT22;57425;51.616;6.680;2022-12-16T10:48:35;-2.50;72.90
70068;DHT22;57425;51.616;6.680;2022-12-16T10:51:22;-2.50;72.90
70068;DHT22;57425;51.616;6.680;2022-12-16T11:00:13;-2.40;73.10
70068;DHT22;57425;51.616;6.680;2022-12-16T11:03:29;-2.40;73.20
70068;DHT22;57425;51.616;6.680;2022-12-16T11:06:25;-2.40;73.20
70068;DHT22;57425;51.616;6.680;2022-12-16T11:09:28;-2.40;73.20
70068;DHT22;57425;51.616;6.680;2022-12-16T11:12:33;-2.40;73.20
70068;DHT22;57425;51.616;6.680;2022-12-16T11:18:10;-2.40;73.20
70068;DHT22;57425;51.616;6.680;2022-12-16T11:21:17;-2.40;73.20
70068;DHT22;57425;51.616;6.680;2022-12-16T11:24:16;-2.40;73.30
70068;DHT22;57425;51.616;6.680;2022-12-16T11:27:09;-2.30;73.30
70068;DHT22;57425;51.616;6.680;2022-12-16T11:30:21;-2.30;73.40
70068;DHT22;57425;51.616;6.680;2022-12-16T11:33:19;-2.30;73.40
70068;DHT22;57425;51.616;6.680;2022-12-16T11:36:25;-2.30;73.40
70068;DHT22;57425;51.616;6.680;2022-12-16T11:39:18;-2.30;73.50
70068;DHT22;57425;51.616;6.680;2022-12-16T11:42:04;-2.30;73.50
70068;DHT22;57425;51.616;6.680;2022-12-16T11:44:52;-2.20;73.60
70068;DHT22;57425;51.616;6.680;2022-12-16T11:50:23;-2.20;73.60
70068;DHT22;57425;51.616;6.680;2022-12-16T11:56:22;-2.20;73.60
70068;DHT22;57425;51.616;6.680;2022-12-16T12:02:32;-2.20;73.70
70068;DHT22;57425;51.616;6.680;2022-12-16T12:05:22;-2.20;73.70
70068;DHT22;57425;51.616;6.680;2022-12-16T12:08:20;-2.10;73.80
70068;DHT22;57425;51.616;6.680;2022-12-16T12:11:15;-2.10;73.80
70068;DHT22;57425;51.616;6.680;2022-12-16T12:14:31;-2.10;73.80
70068;DHT22;57425;51.616;6.680;2022-12-16T12:20:29;-2.10;73.90
70068;DHT22;57425;51.616;6.680;2022-12-16T12:23:31;-2.10;73.90
70068;DHT22;57425;51.616;6.680;2022-12-16T12:26:23;-2.10;73.90
70068;DHT22;57425;51.616;6.680;2022-12-16T12:29:15;-2.10;74.00
70068;DHT22;57425;51.616;6.680;2022-12-16T12:32:18;-2.00;74.10
70068;DHT22;57425;51.616;6.680;2022-12-16T12:39:02;-2.00;74.10
70068;DHT22;57425;51.616;6.680;2022-12-16T12:42:23;-2.00;74.10
70068;DHT22;57425;51.616;6.680;2022-12-16T12:51:15;-1.90;74.30
70068;DHT22;57425;51.616;6.680;2022-12-16T12:54:23;-2.00;74.30
70068;DHT22;57425;51.616;6.680;2022-12-16T12:57:11;-1.90;74.40
70068;DHT22;57425;51.616;6.680;2022-12-16T13:00:05;-1.90;74.50
70068;DHT22;57425;51.616;6.680;2022-12-16T13:03:00;-1.90;74.50
70068;DHT22;57425;51.616;6.680;2022-12-16T13:05:47;-1.80;74.60
70068;DHT22;57425;51.616;6.680;2022-12-16T13:11:27;-1.80;74.70
70068;DHT22;57425;51.616;6.680;2022-12-16T13:17:19;-1.80;74.70
70068;DHT22;57425;51.616;6.680;2022-12-16T13:20:50;-1.80;74.70
70068;DHT22;57425;51.616;6.680;2022-12-16T13:23:33;-1.80;74.70
70068;DHT22;57425;51.616;6.680;2022-12-16T13:26:20;-1.70;74.80
70068;DHT22;57425;51.616;6.680;2022-12-16T13:35:13;-1.70;74.90
70068;DHT22;57425;51.616;6.680;2022-12-16T13:38:01;-1.70;74.90
70068;DHT22;57425;51.616;6.680;2022-12-16T13:40:56;-1.70;74.90
70068;DHT22;57425;51.616;6.680;2022-12-16T13:43:51;-1.60;75.00
70068;DHT22;57425;51.616;6.680;2022-12-16T13:46:48;-1.60;75.00
70068;DHT22;57425;51.616;6.680;2022-12-16T13:55:16;-1.60;75.00
70068;DHT22;57425;51.616;6.680;2022-12-16T13:58:05;-1.60;75.00
70068;DHT22;57425;51.616;6.680;2022-12-16T14:00:58;-1.60;75.60
70068;DHT22;57425;51.616;6.680;2022-12-16T14:03:57;-1.50;75.10
70068;DHT22;57425;51.616;6.680;2022-12-16T14:06:42;-1.50;75.10
70068;DHT22;57425;51.616;6.680;2022-12-16T14:12:39;-1.50;75.10
70068;DHT22;57425;51.616;6.680;2022-12-16T14:18:59;-1.50;75.10
70068;DHT22;57425;51.616;6.680;2022-12-16T14:21:51;-1.50;75.10
70068;DHT22;57425;51.616;6.680;2022-12-16T14:24:41;-1.40;75.10
70068;DHT22;57425;51.616;6.680;2022-12-16T14:27:25;-1.50;75.10
70068;DHT22;57425;51.616;6.680;2022-12-16T14:30:28;-1.40;75.10
70068;DHT22;57425;51.616;6.680;2022-12-16T14:36:26;-1.40;75.20
70068;DHT22;57425;51.616;6.680;2022-12-16T14:39:13;-1.40;75.30
70068;DHT22;57425;51.616;6.680;2022-12-16T14:42:04;-1.40;75.20
70068;DHT22;57425;51.616;6.680;2022-12-16T14:44:58;-1.30;75.30
70068;DHT22;57425;51.616;6.680;2022-12-16T14:47:45;-1.30;75.30
70068;DHT22;57425;51.616;6.680;2022-12-16T14:50:29;-1.30;75.30
70068;DHT22;57425;51.616;6.680;2022-12-16T14:56:20;-1.30;75.30
70068;DHT22;57425;51.616;6.680;2022-12-16T14:59:08;-1.30;75.30
70068;DHT22;57425;51.616;6.680;2022-12-16T15:01:55;-1.30;75.20
70068;DHT22;57425;51.616;6.680;2022-12-16T15:04:41;-1.30;75.30
70068;DHT22;57425;51.616;6.680;2022-12-16T15:07:31;-1.20;75.40
70068;DHT22;57425;51.616;6.680;2022-12-16T15:10:23;-1.20;75.70
70068;DHT22;57425;51.616;6.680;2022-12-16T15:13:15;-1.20;75.40
70068;DHT22;57425;51.616;6.680;2022-12-16T15:15:59;-1.20;75.50
70068;DHT22;57425;51.616;6.680;2022-12-16T15:18:45;-1.20;75.40
70068;DHT22;57425;51.616;6.680;2022-12-16T15:21:34;-1.20;75.40
70068;DHT22;57425;51.616;6.680;2022-12-16T15:24:21;-1.20;75.50
70068;DHT22;57425;51.616;6.680;2022-12-16T15:29:56;-1.10;75.60
70068;DHT22;57425;51.616;6.680;2022-12-16T15:32:52;-1.20;75.40
70068;DHT22;57425;51.616;6.680;2022-12-16T15:35:36;-1.10;75.60
70068;DHT22;57425;51.616;6.680;2022-12-16T15:38:28;-1.10;75.60
70068;DHT22;57425;51.616;6.680;2022-12-16T15:41:30;-1.10;75.60
70068;DHT22;57425;51.616;6.680;2022-12-16T15:44:24;-1.10;75.60
70068;DHT22;57425;51.616;6.680;2022-12-16T15:47:18;-1.10;75.60
70068;DHT22;57425;51.616;6.680;2022-12-16T15:50:04;-1.10;75.60
70068;DHT22;57425;51.616;6.680;2022-12-16T15:52:48;-1.10;75.50
70068;DHT22;57425;51.616;6.680;2022-12-16T15:55:54;-1.10;75.60
70068;DHT22;57425;51.616;6.680;2022-12-16T15:58:38;-1.10;75.60
70068;DHT22;57425;51.616;6.680;2022-12-16T16:01:25;-1.00;75.70
70068;DHT22;57425;51.616;6.680;2022-12-16T16:04:29;-1.10;75.70
70068;DHT22;57425;51.616;6.680;2022-12-16T16:07:19;-1.00;75.70
70068;DHT22;57425;51.616;6.680;2022-12-16T16:12:57;-0.90;75.90
70068;DHT22;57425;51.616;6.680;2022-12-16T16:15:41;-0.80;75.80
70068;DHT22;57425;51.616;6.680;2022-12-16T16:18:25;-0.80;75.80
70068;DHT22;57425;51.616;6.680;2022-12-16T16:21:09;-0.70;75.80
70068;DHT22;57425;51.616;6.680;2022-12-16T16:23:54;-0.70;75.70
70068;DHT22;57425;51.616;6.680;2022-12-16T16:26:37;-0.70;75.70
70068;DHT22;57425;51.616;6.680;2022-12-16T16:29:22;-0.70;75.60
70068;DHT22;57425;51.616;6.680;2022-12-16T16:32:08;-0.60;75.60
70068;DHT22;57425;51.616;6.680;2022-12-16T16:34:52;-0.60;75.60
70068;DHT22;57425;51.616;6.680;2022-12-16T16:37:37;-0.50;75.70
70068;DHT22;57425;51.616;6.680;2022-12-16T16:40:34;-0.60;75.70
70068;DHT22;57425;51.616;6.680;2022-12-16T16:43:19;-0.50;75.70
70068;DHT22;57425;51.616;6.680;2022-12-16T16:48:59;-0.40;75.80
70068;DHT22;57425;51.616;6.680;2022-12-16T16:51:43;-0.50;75.70
70068;DHT22;57425;51.616;6.680;2022-12-16T16:54:27;-0.50;75.80
70068;DHT22;57425;51.616;6.680;2022-12-16T16:57:11;-0.50;75.90
70068;DHT22;57425;51.616;6.680;2022-12-16T16:59:55;-0.50;76.00
70068;DHT22;57425;51.616;6.680;2022-12-16T17:02:39;-0.50;76.00
70068;DHT22;57425;51.616;6.680;2022-12-16T17:05:23;-0.60;76.10
70068;DHT22;57425;51.616;6.680;2022-12-16T17:08:07;-0.60;76.20
70068;DHT22;57425;51.616;6.680;2022-12-16T17:10:51;-0.70;76.20
70068;DHT22;57425;51.616;6.680;2022-12-16T17:13:36;-0.70;76.20
70068;DHT22;57425;51.616;6.680;2022-12-16T17:16:22;-0.70;76.30
70068;DHT22;57425;51.616;6.680;2022-12-16T17:19:07;-0.70;76.40
70068;DHT22;57425;51.616;6.680;2022-12-16T17:21:51;-0.70;76.50
70068;DHT22;57425;51.616;6.680;2022-12-16T17:24:36;-0.70;76.60
70068;DHT22;57425;51.616;6.680;2022-12-16T17:27:23;-0.60;76.70
70068;DHT22;57425;51.616;6.680;2022-12-16T17:30:22;-0.60;76.70
70068;DHT22;57425;51.616;6.680;2022-12-16T17:33:07;-0.50;76.70
70068;DHT22;57425;51.616;6.680;2022-12-16T17:35:51;-0.50;76.60
70068;DHT22;57425;51.616;6.680;2022-12-16T17:38:41;-0.40;76.60
70068;DHT22;57425;51.616;6.680;2022-12-16T17:41:27;-0.40;76.60
70068;DHT22;57425;51.616;6.680;2022-12-16T17:44:12;-0.40;76.60
70068;DHT22;57425;51.616;6.680;2022-12-16T17:46:56;-0.30;76.60
70068;DHT22;57425;51.616;6.680;2022-12-16T17:49:40;-0.30;76.70
70068;DHT22;57425;51.616;6.680;2022-12-16T17:52:24;-0.30;76.60
70068;DHT22;57425;51.616;6.680;2022-12-16T17:55:09;-0.30;77.20
70068;DHT22;57425;51.616;6.680;2022-12-16T17:57:53;-0.30;76.60
70068;DHT22;57425;51.616;6.680;2022-12-16T18:00:38;-0.20;76.60
70068;DHT22;57425;51.616;6.680;2022-12-16T18:03:22;-0.20;76.60
70068;DHT22;57425;51.616;6.680;2022-12-16T18:06:07;-0.20;76.60
70068;DHT22;57425;51.616;6.680;2022-12-16T18:08:52;-0.20;76.60
70068;DHT22;57425;51.616;6.680;2022-12-16T18:11:36;-0.20;76.60
70068;DHT22;57425;51.616;6.680;2022-12-16T18:14:20;-0.10;76.60
70068;DHT22;57425;51.616;6.680;2022-12-16T18:17:05;-0.10;76.60
70068;DHT22;57425;51.616;6.680;2022-12-16T18:19:50;-0.10;77.10
70068;DHT22;57425;51.616;6.680;2022-12-16T18:22:35;-0.10;76.60
70068;DHT22;57425;51.616;6.680;2022-12-16T18:25:20;-0.10;76.60
70068;DHT22;57425;51.616;6.680;2022-12-16T18:28:04;-0.10;76.60
70068;DHT22;57425;51.616;6.680;2022-12-16T18:30:48;-0.10;76.60
70068;DHT22;57425;51.616;6.680;2022-12-16T18:33:32;0.00;76.60
70068;DHT22;57425;51.616;6.680;2022-12-16T18:36:17;0.00;76.60
70068;DHT22;57425;51.616;6.680;2022-12-16T18:39:01;0.00;76.60
70068;DHT22;57425;51.616;6.680;2022-12-16T18:41:46;0.00;76.60
70068;DHT22;57425;51.616;6.680;2022-12-16T18:44:30;0.00;76.70
70068;DHT22;57425;51.616;6.680;2022-12-16T18:47:15;0.00;76.60
70068;DHT22;57425;51.616;6.680;2022-12-16T18:49:59;0.00;76.70
70068;DHT22;57425;51.616;6.680;2022-12-16T18:52:44;0.00;76.70
70068;DHT22;57425;51.616;6.680;2022-12-16T18:55:29;0.00;76.70
70068;DHT22;57425;51.616;6.680;2022-12-16T18:58:13;0.00;76.70
70068;DHT22;57425;51.616;6.680;2022-12-16T19:01:02;0.10;76.80
70068;DHT22;57425;51.616;6.680;2022-12-16T19:03:47;0.10;76.80
70068;DHT22;57425;51.616;6.680;2022-12-16T19:06:31;0.10;76.80
70068;DHT22;57425;51.616;6.680;2022-12-16T19:09:15;0.00;76.80